Machala, Ecuador

4:20 PM ECT on September 30, 2014 (GMT -0500)
Machala, El Oro, Ecuador | Change Station
CLOSE
Current Station
Personal Weather Station
Location: El Cambio, EL ORO
Elevation: 20 ft
Nearby Weather Stations

Elev 20 ft 3.30 °S, 79.90 °W | Updated 9 minutes ago

Overcast
Overcast
78.9 °F
Feels Like 82 °F
N
0.0
Wind Variable Wind from NW
Gusts 0.0 mph

Today
High -- | Low -- °F
--% Chance of Precip.
Yesterday
High -- | Low -- °F
Precip. -- in
6:05 AM 6:13 PM
Waxing Crescent, 40% visible
Pressure 29.80 in
Visibility 6.2 miles
Clouds Overcast 1500 ft
Heat Index 82 °F
Dew Point 72 °F
Humidity 78%
Rainfall 0.00 in
Snow Depth Not available.
UV 0.0 out of 12
Pollen Not available.
Air Quality Not available.
Flu Activity Not available.
METAR SPME 302100Z 30005KT 9999 OVC015 24/20 Q1009 RMK BIRD HAZARD RWY 32/14 PP000

More Conditions Fewer Conditions

Pressure 29.80 in
Visibility 6.2 miles
Clouds Overcast 1500 ft
Heat Index 82 °F
Dew Point 72 °F
Humidity 78%
Rainfall 0.00 in
Snow Depth Not available.
UV 0.0 out of 12
Pollen Not available.
Air Quality Not available.
Flu Activity Not available.
METAR SPME 302100Z 30005KT 9999 OVC015 24/20 Q1009 RMK BIRD HAZARD RWY 32/14 PP000

More Conditions Fewer Conditions

10-Day Weather Forecast

Almanac

Astronomy

Sep. 30, 2014 Rise Set
Actual Time 6:05 AM ECT 6:13 PM ECT
Civil Twilight 5:45 AM ECT 6:34 PM ECT
Nautical Twilight 5:21 AM ECT 6:58 PM ECT
Astronomical Twilight 4:56 AM ECT 7:22 PM ECT
Moon 11:09 AM ECT 11:44 PM ECT
Length of Visible Light 12h 49m
Length of Day
12h 07m
Tomorrow will be 0m 11s longer.
Waxing Crescent, 40% of the Moon is Illuminated
Today
Waxing Crescent
Oct 1
First Quarter
Oct 8
Full
Oct 15
Last Quarter
Oct 23
New

Today's Extremes

Country Highs Country Lows

Community

WunderPhotos

Upload Photos

1,757,755 photos uploaded!

Nearby

Snow Depth

Not available.

Earthquake Activity

City Distance Mag. Time & Date
No recent earthquake activity has been reported nearby.
Minimum magnitude displayed is 2.5.

Coastal Water Temperatures

Place Temperature
No Stations Reporting

Nearby Weather Stations